createdAt,value
2022-09-07T00:01:34.919Z,12.45
2022-09-07T00:04:03.514Z,13.23
2022-09-07T00:06:31.209Z,13.18
2022-09-07T00:08:58.651Z,15.27
2022-09-07T00:11:25.983Z,15.27
2022-09-07T00:13:53.420Z,12.65
2022-09-07T00:16:23.015Z,12.48
2022-09-07T00:18:50.460Z,14.70
2022-09-07T00:21:17.985Z,12.03
2022-09-07T00:23:45.617Z,11.90
2022-09-07T00:26:14.867Z,13.45
2022-09-07T00:28:42.319Z,13.13
2022-09-07T00:31:14.699Z,12.52
2022-09-07T00:33:42.302Z,13.67
2022-09-07T00:36:09.633Z,13.10
2022-09-07T00:38:37.127Z,13.15
2022-09-07T00:41:04.782Z,13.57
2022-09-07T00:43:43.619Z,15.73
2022-09-07T00:46:16.533Z,13.77
2022-09-07T00:49:03.335Z,15.05
2022-09-07T00:51:40.461Z,13.60
2022-09-07T00:54:12.812Z,13.65
2022-09-07T00:56:41.476Z,14.10
2022-09-07T00:59:09.296Z,15.53
2022-09-07T01:01:36.785Z,16.30
2022-09-07T01:04:04.154Z,13.93
2022-09-07T01:06:33.518Z,14.52
2022-09-07T01:09:14.897Z,14.30
2022-09-07T01:11:45.737Z,16.73
2022-09-07T01:14:14.323Z,15.88
2022-09-07T01:17:03.917Z,16.60
2022-09-07T01:19:57.571Z,15.02
2022-09-07T01:22:49.844Z,18.25
2022-09-07T01:25:39.138Z,13.17
2022-09-07T01:28:14.557Z,17.05
2022-09-07T01:30:43.793Z,14.43
2022-09-07T01:33:32.515Z,14.52
2022-09-07T01:36:20.572Z,13.70
2022-09-07T01:38:52.641Z,16.50
2022-09-07T01:41:39.362Z,15.13
2022-09-07T01:44:22.640Z,13.00
2022-09-07T01:46:57.366Z,14.18
2022-09-07T01:49:31.709Z,14.40
2022-09-07T01:52:01.926Z,13.77
2022-09-07T01:55:01.597Z,12.98
2022-09-07T01:57:34.732Z,13.82
2022-09-07T02:00:12.016Z,14.93
2022-09-07T02:02:55.905Z,15.48
2022-09-07T02:05:30.832Z,15.73
2022-09-07T02:08:04.688Z,14.70
2022-09-07T02:10:50.835Z,14.52
2022-09-07T02:13:31.325Z,13.27
2022-09-07T02:16:07.578Z,15.88
2022-09-07T02:18:41.705Z,15.03
2022-09-07T02:21:09.078Z,14.40
2022-09-07T02:23:49.382Z,13.85
2022-09-07T02:26:21.537Z,15.35
2022-09-07T02:28:48.915Z,13.95
2022-09-07T02:31:16.340Z,15.13
2022-09-07T02:33:43.693Z,15.55
2022-09-07T02:36:12.127Z,12.88
2022-09-07T02:38:39.641Z,13.43
2022-09-07T02:41:36.956Z,13.73
2022-09-07T02:44:24.204Z,15.30
2022-09-07T02:47:16.914Z,15.32
2022-09-07T02:49:53.403Z,15.18
2022-09-07T02:52:35.969Z,14.70
2022-09-07T02:55:31.500Z,15.68
2022-09-07T02:58:15.060Z,16.10
2022-09-07T03:00:51.402Z,16.52
2022-09-07T03:03:23.837Z,17.80
2022-09-07T03:05:55.455Z,20.98
2022-09-07T03:08:32.118Z,17.73
2022-09-07T03:10:59.489Z,15.47
2022-09-07T03:13:29.842Z,16.80
2022-09-07T03:15:57.418Z,15.75
2022-09-07T03:18:25.681Z,17.73
2022-09-07T03:20:53.277Z,17.58
2022-09-07T03:23:20.882Z,18.20
2022-09-07T03:25:49.227Z,16.38
2022-09-07T03:28:16.750Z,16.27
2022-09-07T03:30:44.596Z,16.35
2022-09-07T03:33:11.895Z,15.98
2022-09-07T03:35:39.173Z,14.37
2022-09-07T03:38:06.480Z,15.23
2022-09-07T03:40:33.855Z,15.75
2022-09-07T03:43:01.208Z,14.18
2022-09-07T03:45:28.486Z,16.30
2022-09-07T03:47:55.878Z,17.37
2022-09-07T03:50:23.192Z,14.55
2022-09-07T03:52:50.464Z,15.23
2022-09-07T03:55:17.839Z,16.35
2022-09-07T03:57:45.365Z,17.27
2022-09-07T04:00:13.195Z,18.13
2022-09-07T04:02:40.724Z,20.40
2022-09-07T04:05:08.855Z,17.30
2022-09-07T04:07:36.280Z,16.65
2022-09-07T04:10:04.258Z,16.83
2022-09-07T04:12:31.627Z,14.60
2022-09-07T04:14:59.000Z,16.65
2022-09-07T04:17:26.307Z,14.77
2022-09-07T04:19:53.951Z,16.60
2022-09-07T04:22:21.345Z,18.30
2022-09-07T04:24:48.884Z,16.67
2022-09-07T04:27:16.183Z,15.98
2022-09-07T04:29:43.587Z,16.27
2022-09-07T04:32:15.495Z,16.77
2022-09-07T04:34:43.318Z,18.63
2022-09-07T04:37:10.635Z,18.17
2022-09-07T04:39:38.176Z,13.68
2022-09-07T04:42:05.777Z,14.13
2022-09-07T04:44:33.099Z,19.85
2022-09-07T04:47:00.956Z,18.02
2022-09-07T04:49:28.318Z,15.80
2022-09-07T04:51:55.831Z,16.88
2022-09-07T04:54:23.345Z,18.88
2022-09-07T04:56:50.866Z,17.25
2022-09-07T04:59:18.345Z,19.30
2022-09-07T05:01:45.718Z,15.87
2022-09-07T05:04:13.985Z,18.92
2022-09-07T05:06:42.318Z,17.15
2022-09-07T05:09:10.373Z,17.83
2022-09-07T05:11:38.693Z,19.52
2022-09-07T05:14:19.324Z,21.27
2022-09-07T05:16:57.870Z,27.48
2022-09-07T05:19:26.446Z,24.48
2022-09-07T05:22:13.647Z,29.38
2022-09-07T05:24:52.118Z,25.75
2022-09-07T05:27:21.706Z,27.80
2022-09-07T05:32:32.752Z,23.98
2022-09-07T05:35:00.572Z,22.83
2022-09-07T05:37:28.167Z,23.60
2022-09-07T05:40:04.831Z,24.20
2022-09-07T05:42:33.154Z,24.35
2022-09-07T05:45:00.716Z,22.25
2022-09-07T05:47:28.384Z,21.80
2022-09-07T05:49:57.259Z,21.42
2022-09-07T05:52:24.901Z,26.50
2022-09-07T05:54:59.257Z,21.90
2022-09-07T05:57:35.263Z,20.48
2022-09-07T06:00:05.299Z,21.27
2022-09-07T06:02:39.955Z,23.58
2022-09-07T06:05:09.340Z,24.33
2022-09-07T06:07:37.302Z,25.20
2022-09-07T06:12:54.946Z,21.13
2022-09-07T06:15:22.726Z,16.70
2022-09-07T06:17:50.742Z,20.43
2022-09-07T06:20:19.659Z,22.77
2022-09-07T06:22:48.854Z,18.15
2022-09-07T06:25:16.559Z,20.05
2022-09-07T06:27:44.734Z,20.52
2022-09-07T06:30:12.761Z,19.47
2022-09-07T06:35:10.176Z,20.17
2022-09-07T06:37:38.429Z,16.48
2022-09-07T06:40:07.800Z,21.50
2022-09-07T06:42:37.792Z,16.40
2022-09-07T06:45:06.717Z,15.48
2022-09-07T06:47:38.469Z,16.30
2022-09-07T06:50:06.697Z,16.90
2022-09-07T06:55:24.799Z,15.27
2022-09-07T06:57:54.265Z,14.43
2022-09-07T07:00:22.857Z,14.43
2022-09-07T07:02:51.112Z,15.65
2022-09-07T07:05:21.165Z,15.98
2022-09-07T07:07:49.046Z,15.73
2022-09-07T07:10:19.708Z,18.25
2022-09-07T07:12:53.638Z,13.88
2022-09-07T07:15:29.339Z,14.43
2022-09-07T07:18:05.496Z,16.02
2022-09-07T07:20:49.199Z,15.03
2022-09-07T07:23:17.267Z,15.48
2022-09-07T07:25:44.787Z,15.95
2022-09-07T07:31:00.743Z,14.52
2022-09-07T07:33:35.369Z,14.83
2022-09-07T07:36:11.903Z,15.52
2022-09-07T07:44:21.411Z,17.75
2022-09-07T07:46:51.338Z,16.60
2022-09-07T07:49:19.055Z,15.15
2022-09-07T07:54:37.153Z,13.75
2022-09-07T07:57:06.276Z,15.30
2022-09-07T07:59:35.800Z,14.67
2022-09-07T08:02:06.798Z,14.52
2022-09-07T08:04:38.568Z,14.60
2022-09-07T08:07:10.840Z,13.35
2022-09-07T08:09:46.501Z,12.88
2022-09-07T08:12:19.437Z,14.07
2022-09-07T08:14:49.098Z,14.38
2022-09-07T08:17:21.716Z,12.77
2022-09-07T08:19:51.297Z,13.02
2022-09-07T08:22:18.932Z,11.65
2022-09-07T08:24:46.873Z,14.27
2022-09-07T08:27:14.861Z,12.65
2022-09-07T08:29:43.203Z,14.57
2022-09-07T08:32:11.965Z,9.35
2022-09-07T08:34:40.379Z,10.57
2022-09-07T08:37:07.967Z,8.80
2022-09-07T08:39:36.229Z,11.15
2022-09-07T08:42:57.864Z,10.43
2022-09-07T08:45:30.429Z,10.25
2022-09-07T08:47:58.305Z,11.93
2022-09-07T08:50:37.549Z,10.87
2022-09-07T08:53:09.033Z,9.98
2022-09-07T08:55:38.410Z,11.05
2022-09-07T08:58:48.355Z,10.18
2022-09-07T09:01:34.057Z,10.23
2022-09-07T09:04:18.431Z,10.80
2022-09-07T09:06:56.672Z,10.65
2022-09-07T09:09:31.908Z,11.32
2022-09-07T09:12:25.094Z,11.15
2022-09-07T09:15:09.409Z,10.52
2022-09-07T09:17:47.780Z,9.33
2022-09-07T09:20:48.232Z,9.25
2022-09-07T09:23:21.698Z,9.85
2022-09-07T09:25:54.142Z,9.40
2022-09-07T09:28:22.606Z,10.40
2022-09-07T09:30:50.789Z,11.07
2022-09-07T09:33:20.574Z,9.82
2022-09-07T09:35:53.546Z,9.43
2022-09-07T09:38:34.931Z,9.48
2022-09-07T09:41:12.410Z,8.68
2022-09-07T09:43:53.452Z,8.63
2022-09-07T09:46:32.616Z,9.55
2022-09-07T09:49:29.224Z,8.55
2022-09-07T09:54:46.927Z,8.32
2022-09-07T09:57:38.911Z,8.07
2022-09-07T10:00:16.315Z,8.18
2022-09-07T10:06:17.952Z,8.02
2022-09-07T10:09:07.764Z,8.27
2022-09-07T10:12:11.108Z,8.33
2022-09-07T10:14:45.871Z,9.45
2022-09-07T10:17:37.984Z,8.38
2022-09-07T10:20:17.599Z,9.80
2022-09-07T10:22:51.517Z,8.85
2022-09-07T10:25:30.615Z,9.20
2022-09-07T10:28:15.451Z,8.85
2022-09-07T10:31:05.169Z,8.57
2022-09-07T10:37:07.127Z,9.05
2022-09-07T10:39:53.286Z,9.30
2022-09-07T10:42:33.452Z,11.15
2022-09-07T10:45:10.784Z,11.05
2022-09-07T10:47:50.814Z,10.60
2022-09-07T10:50:39.838Z,10.38
2022-09-07T10:53:40.205Z,8.90
2022-09-07T10:56:18.273Z,10.40
2022-09-07T10:59:03.880Z,11.85
2022-09-07T11:01:57.188Z,9.98
2022-09-07T11:04:31.968Z,9.15
2022-09-07T11:07:51.247Z,9.43
2022-09-07T11:10:46.146Z,10.63
2022-09-07T11:13:18.259Z,9.32
2022-09-07T11:16:50.618Z,9.95
2022-09-07T11:22:07.831Z,8.63
2022-09-07T11:27:56.199Z,8.80
2022-09-07T11:30:37.776Z,9.30
2022-09-07T11:33:13.284Z,10.65
2022-09-07T11:35:53.448Z,9.87
2022-09-07T11:38:35.395Z,11.82
2022-09-07T11:41:30.597Z,9.55
2022-09-07T11:44:19.945Z,8.75
2022-09-07T11:47:04.752Z,11.25
2022-09-07T11:49:44.497Z,8.27
2022-09-07T11:52:30.207Z,10.43
2022-09-07T11:55:01.202Z,10.30
2022-09-07T11:58:07.602Z,10.75
2022-09-07T12:01:11.366Z,7.80
2022-09-07T12:03:57.412Z,9.03
2022-09-07T12:06:45.267Z,9.80
2022-09-07T12:09:27.887Z,9.98
2022-09-07T12:12:07.350Z,7.55
2022-09-07T12:14:44.169Z,8.48
2022-09-07T12:17:18.936Z,8.67
2022-09-07T12:19:46.494Z,8.30
2022-09-07T12:22:20.953Z,12.15
2022-09-07T12:24:52.250Z,8.82
2022-09-07T12:27:22.776Z,8.18
2022-09-07T12:29:53.065Z,8.43
2022-09-07T12:32:57.488Z,8.52
2022-09-07T12:35:28.858Z,8.30
2022-09-07T12:37:56.586Z,7.93
2022-09-07T12:40:36.336Z,9.63
2022-09-07T12:43:15.632Z,10.60
2022-09-07T12:45:43.329Z,9.05
2022-09-07T12:48:11.847Z,9.20
2022-09-07T12:51:00.886Z,9.52
2022-09-07T12:53:37.315Z,10.20
2022-09-07T12:56:23.001Z,7.63
2022-09-07T12:59:00.316Z,9.25
2022-09-07T13:01:33.352Z,8.40
2022-09-07T13:04:15.313Z,8.32
2022-09-07T13:07:02.163Z,10.88
2022-09-07T13:09:39.878Z,7.67
2022-09-07T13:15:49.918Z,8.63
2022-09-07T13:18:27.157Z,7.70
2022-09-07T13:21:09.836Z,8.38
2022-09-07T13:23:38.338Z,8.67
2022-09-07T13:26:08.338Z,8.00
2022-09-07T13:28:56.241Z,7.57
2022-09-07T13:31:38.931Z,9.48
2022-09-07T13:34:34.454Z,8.43
2022-09-07T13:37:02.792Z,9.33
2022-09-07T13:39:32.743Z,9.00
2022-09-07T13:42:00.309Z,8.65
2022-09-07T13:44:30.707Z,8.07
2022-09-07T13:47:25.105Z,8.30
2022-09-07T13:50:03.367Z,9.27
2022-09-07T13:52:43.946Z,9.60
2022-09-07T13:55:26.239Z,8.07
2022-09-07T13:58:33.880Z,9.15
2022-09-07T14:01:08.015Z,8.63
2022-09-07T14:03:43.906Z,9.70
2022-09-07T14:06:28.043Z,9.05
2022-09-07T14:09:14.000Z,11.38
2022-09-07T14:11:43.516Z,9.38
2022-09-07T14:14:27.292Z,9.55
2022-09-07T14:17:00.856Z,9.20
2022-09-07T14:19:55.310Z,10.90
2022-09-07T14:22:23.966Z,8.55
2022-09-07T14:25:04.340Z,10.52
2022-09-07T14:27:39.513Z,10.43
2022-09-07T14:30:29.966Z,9.03
2022-09-07T14:33:01.069Z,12.88
2022-09-07T14:35:32.559Z,11.15
2022-09-07T14:38:06.365Z,9.85
2022-09-07T14:40:33.617Z,9.73
2022-09-07T14:43:01.125Z,8.87
2022-09-07T14:45:33.200Z,8.73
2022-09-07T14:48:00.708Z,9.98
2022-09-07T14:50:33.173Z,10.95
2022-09-07T14:55:59.875Z,10.97
2022-09-07T14:58:30.760Z,9.85
2022-09-07T15:04:18.668Z,9.77
2022-09-07T15:07:02.644Z,10.23
2022-09-07T15:09:36.299Z,9.13
2022-09-07T15:12:08.558Z,10.35
2022-09-07T15:14:36.338Z,10.32
2022-09-07T15:19:51.374Z,10.27
2022-09-07T15:22:18.950Z,10.47
2022-09-07T15:24:50.110Z,9.85
2022-09-07T15:27:30.579Z,8.85
2022-09-07T15:29:57.962Z,8.85
2022-09-07T15:32:25.316Z,9.98
2022-09-07T15:34:52.719Z,10.93
2022-09-07T15:40:21.913Z,10.90
2022-09-07T15:43:16.379Z,10.15
2022-09-07T15:45:37.391Z,9.68
2022-09-07T15:48:04.992Z,11.33
2022-09-07T15:50:32.360Z,10.07
2022-09-07T15:53:00.982Z,10.48
2022-09-07T15:55:28.938Z,10.43
2022-09-07T15:58:10.928Z,10.48
2022-09-07T16:00:39.168Z,11.30
2022-09-07T16:03:07.879Z,11.77
2022-09-07T16:05:36.087Z,9.60
2022-09-07T16:10:55.833Z,10.63
2022-09-07T16:13:24.530Z,10.83
2022-09-07T16:15:52.092Z,12.15
2022-09-07T16:18:19.950Z,11.75
2022-09-07T16:20:47.978Z,14.68
2022-09-07T16:23:19.961Z,12.95
2022-09-07T16:25:58.508Z,14.50
2022-09-07T16:28:26.200Z,11.02
2022-09-07T16:30:53.678Z,11.65
2022-09-07T16:33:21.263Z,11.48
2022-09-07T16:36:01.837Z,11.90
2022-09-07T16:38:45.361Z,11.10
2022-09-07T16:41:16.371Z,13.65
2022-09-07T16:43:44.288Z,12.35
2022-09-07T16:46:14.231Z,12.10
2022-09-07T16:48:41.757Z,13.40
2022-09-07T16:51:09.929Z,13.47
2022-09-07T16:53:38.194Z,13.73
2022-09-07T16:56:11.567Z,13.93
2022-09-07T16:58:40.899Z,12.13
2022-09-07T17:01:12.972Z,15.95
2022-09-07T17:03:40.836Z,13.00
2022-09-07T17:06:09.256Z,13.48
2022-09-07T17:08:37.031Z,14.50
2022-09-07T17:11:16.209Z,11.77
2022-09-07T17:13:43.665Z,14.18
2022-09-07T17:16:22.521Z,14.50
2022-09-07T17:21:38.661Z,14.05
2022-09-07T17:24:06.730Z,14.88
2022-09-07T17:26:34.223Z,16.63
2022-09-07T17:29:01.825Z,13.23
2022-09-07T17:34:18.442Z,13.88
2022-09-07T17:36:45.842Z,11.82
2022-09-07T17:39:16.435Z,12.32
2022-09-07T17:41:45.188Z,12.57
2022-09-07T17:44:12.673Z,14.57
2022-09-07T17:46:40.063Z,13.25
2022-09-07T17:49:09.665Z,13.48
2022-09-07T17:51:36.918Z,12.57
2022-09-07T17:54:09.944Z,12.53
2022-09-07T17:56:38.826Z,13.70
2022-09-07T18:01:56.270Z,14.75
2022-09-07T18:04:24.245Z,12.27
2022-09-07T18:06:51.705Z,12.37
2022-09-07T18:09:20.046Z,12.20
2022-09-07T18:11:48.997Z,11.52
2022-09-07T18:14:17.259Z,12.88
2022-09-07T18:16:45.383Z,13.48
2022-09-07T18:19:12.832Z,14.73
2022-09-07T18:21:42.496Z,12.52
2022-09-07T18:24:21.022Z,11.88
2022-09-07T18:26:51.006Z,12.43
2022-09-07T18:29:36.908Z,14.13
2022-09-07T18:32:08.419Z,12.87
2022-09-07T18:34:36.792Z,17.30
2022-09-07T18:37:04.753Z,12.55
2022-09-07T18:39:33.578Z,13.75
2022-09-07T18:42:01.009Z,12.40
2022-09-07T18:47:22.071Z,16.63
2022-09-07T18:49:51.629Z,11.15
2022-09-07T18:55:10.123Z,12.63
2022-09-07T18:57:38.173Z,12.60
2022-09-07T19:00:07.038Z,10.80
2022-09-07T19:02:34.487Z,11.02
2022-09-07T19:07:49.581Z,10.85
2022-09-07T19:10:17.860Z,10.57
2022-09-07T19:12:46.298Z,11.73
2022-09-07T19:15:15.247Z,12.43
2022-09-07T19:17:42.701Z,9.30
2022-09-07T19:20:10.484Z,11.43
2022-09-07T19:22:37.910Z,11.23
2022-09-07T19:25:06.256Z,12.50
2022-09-07T19:27:33.561Z,10.02
2022-09-07T19:30:01.218Z,9.13
2022-09-07T19:32:28.655Z,11.18
2022-09-07T19:34:56.181Z,10.10
2022-09-07T19:37:27.791Z,8.77
2022-09-07T19:39:55.496Z,12.57
2022-09-07T19:42:23.828Z,11.65
2022-09-07T19:44:51.635Z,10.00
2022-09-07T19:47:18.958Z,9.37
2022-09-07T19:49:46.234Z,9.32
2022-09-07T19:52:13.579Z,9.85
2022-09-07T19:54:40.951Z,9.45
2022-09-07T19:57:08.254Z,10.20
2022-09-07T19:59:35.515Z,8.87
2022-09-07T20:02:02.993Z,10.75
2022-09-07T20:04:30.508Z,11.10
2022-09-07T20:06:57.845Z,10.13
2022-09-07T20:09:25.889Z,11.27
2022-09-07T20:11:53.272Z,9.70
2022-09-07T20:14:20.753Z,10.02
2022-09-07T20:16:48.198Z,12.00
2022-09-07T20:19:15.565Z,10.60
2022-09-07T20:21:42.957Z,9.63
2022-09-07T20:24:14.502Z,10.00
2022-09-07T20:26:41.862Z,10.82
2022-09-07T20:31:58.219Z,11.10
2022-09-07T20:34:26.512Z,14.35
2022-09-07T20:36:54.032Z,10.17
2022-09-07T20:39:21.730Z,11.35
2022-09-07T20:41:49.089Z,11.15
2022-09-07T20:44:16.620Z,12.43
2022-09-07T20:46:44.287Z,11.27
2022-09-07T20:49:11.788Z,11.47
2022-09-07T20:51:39.037Z,11.98
2022-09-07T20:54:07.215Z,13.02
2022-09-07T20:56:34.797Z,11.98
2022-09-07T20:59:02.511Z,12.93
2022-09-07T21:01:30.526Z,13.53
2022-09-07T21:03:58.623Z,12.02
2022-09-07T21:06:26.470Z,10.85
2022-09-07T21:08:54.280Z,11.63
2022-09-07T21:11:32.034Z,11.27
2022-09-07T21:14:01.116Z,10.00
2022-09-07T21:16:28.464Z,11.23
2022-09-07T21:18:57.738Z,10.35
2022-09-07T21:21:26.639Z,9.48
2022-09-07T21:23:58.205Z,11.05
2022-09-07T21:26:25.851Z,10.07
2022-09-07T21:29:00.705Z,14.18
2022-09-07T21:31:29.222Z,13.02
2022-09-07T21:33:57.605Z,13.60
2022-09-07T21:36:25.025Z,11.02
2022-09-07T21:38:52.539Z,9.33
2022-09-07T21:41:20.581Z,10.63
2022-09-07T21:43:47.964Z,10.32
2022-09-07T21:46:17.281Z,9.13
2022-09-07T21:48:45.664Z,10.82
2022-09-07T21:51:13.623Z,10.73
2022-09-07T21:53:41.275Z,10.80
2022-09-07T21:56:10.805Z,11.02
2022-09-07T21:58:40.085Z,9.60
2022-09-07T22:01:17.989Z,10.85
2022-09-07T22:03:46.452Z,12.13
2022-09-07T22:06:14.473Z,13.65
2022-09-07T22:08:41.930Z,11.18
2022-09-07T22:11:10.835Z,10.40
2022-09-07T22:13:38.170Z,10.02
2022-09-07T22:16:06.077Z,8.77
2022-09-07T22:18:33.572Z,10.25
2022-09-07T22:21:14.947Z,10.27
2022-09-07T22:23:43.868Z,10.20
2022-09-07T22:26:11.480Z,11.52
2022-09-07T22:28:38.956Z,12.27
2022-09-07T22:31:10.472Z,13.05
2022-09-07T22:33:38.067Z,11.70
2022-09-07T22:36:18.910Z,11.77
2022-09-07T22:38:47.495Z,10.85
2022-09-07T22:41:16.676Z,12.97
2022-09-07T22:43:44.417Z,12.77
2022-09-07T22:46:11.908Z,10.75
2022-09-07T22:48:40.029Z,9.40
2022-09-07T22:51:07.748Z,12.13
2022-09-07T22:53:35.808Z,11.20
2022-09-07T22:56:17.017Z,11.77
2022-09-07T22:58:48.638Z,11.40
2022-09-07T23:01:16.111Z,10.82
2022-09-07T23:03:43.809Z,10.95
2022-09-07T23:06:21.815Z,10.70
2022-09-07T23:08:50.485Z,13.13
2022-09-07T23:11:17.839Z,11.73
2022-09-07T23:13:45.253Z,10.85
2022-09-07T23:16:12.587Z,10.90
2022-09-07T23:18:40.953Z,10.77
2022-09-07T23:21:08.276Z,11.60
2022-09-07T23:23:35.671Z,9.98
2022-09-07T23:26:03.499Z,12.15
2022-09-07T23:28:30.830Z,14.98
2022-09-07T23:30:58.405Z,11.90
2022-09-07T23:33:26.300Z,11.15
2022-09-07T23:35:58.155Z,10.65
2022-09-07T23:38:26.047Z,12.00
2022-09-07T23:40:54.768Z,10.80
2022-09-07T23:43:22.699Z,10.83
2022-09-07T23:45:50.225Z,10.68
2022-09-07T23:48:17.512Z,11.18
2022-09-07T23:50:46.992Z,10.35
2022-09-07T23:53:14.551Z,10.55
2022-09-07T23:55:42.015Z,11.43
2022-09-07T23:58:09.722Z,9.40
